sensor_id;sensor_type;location;lat;lon;timestamp;temperature;humidity
56268;DHT22;42175;46.930;9.532;2023-02-15T00:01:46;23.90;32.00
56268;DHT22;42175;46.930;9.532;2023-02-15T00:04:14;24.00;31.90
56268;DHT22;42175;46.930;9.532;2023-02-15T00:06:40;23.90;32.00
56268;DHT22;42175;46.930;9.532;2023-02-15T00:09:06;23.90;32.00
56268;DHT22;42175;46.930;9.532;2023-02-15T00:11:32;23.90;31.90
56268;DHT22;42175;46.930;9.532;2023-02-15T00:14:21;23.90;32.00
56268;DHT22;42175;46.930;9.532;2023-02-15T00:16:49;23.90;31.90
56268;DHT22;42175;46.930;9.532;2023-02-15T00:19:17;23.80;32.00
56268;DHT22;42175;46.930;9.532;2023-02-15T00:21:43;23.90;32.00
56268;DHT22;42175;46.930;9.532;2023-02-15T00:24:11;23.90;31.80
56268;DHT22;42175;46.930;9.532;2023-02-15T00:26:41;23.90;31.80
56268;DHT22;42175;46.930;9.532;2023-02-15T00:29:08;23.90;31.80
56268;DHT22;42175;46.930;9.532;2023-02-15T00:31:34;23.80;31.80
56268;DHT22;42175;46.930;9.532;2023-02-15T00:34:06;23.80;31.80
56268;DHT22;42175;46.930;9.532;2023-02-15T00:36:32;23.80;31.90
56268;DHT22;42175;46.930;9.532;2023-02-15T00:38:58;23.80;31.90
56268;DHT22;42175;46.930;9.532;2023-02-15T00:41:23;23.90;32.00
56268;DHT22;42175;46.930;9.532;2023-02-15T00:43:49;23.80;31.90
56268;DHT22;42175;46.930;9.532;2023-02-15T00:46:15;23.80;31.70
56268;DHT22;42175;46.930;9.532;2023-02-15T00:48:41;23.80;31.90
56268;DHT22;42175;46.930;9.532;2023-02-15T00:51:06;23.80;31.80
56268;DHT22;42175;46.930;9.532;2023-02-15T00:53:32;23.80;31.80
56268;DHT22;42175;46.930;9.532;2023-02-15T00:55:58;23.80;31.80
56268;DHT22;42175;46.930;9.532;2023-02-15T00:58:24;23.80;31.80
56268;DHT22;42175;46.930;9.532;2023-02-15T01:00:51;23.80;31.80
56268;DHT22;42175;46.930;9.532;2023-02-15T01:03:20;23.80;31.80
56268;DHT22;42175;46.930;9.532;2023-02-15T01:05:47;23.80;31.80
56268;DHT22;42175;46.930;9.532;2023-02-15T01:08:13;23.80;31.80
56268;DHT22;42175;46.930;9.532;2023-02-15T01:10:39;23.80;31.80
56268;DHT22;42175;46.930;9.532;2023-02-15T01:13:05;23.70;31.90
56268;DHT22;42175;46.930;9.532;2023-02-15T01:15:31;23.70;32.00
56268;DHT22;42175;46.930;9.532;2023-02-15T01:17:59;23.70;31.90
56268;DHT22;42175;46.930;9.532;2023-02-15T01:20:27;23.70;32.00
56268;DHT22;42175;46.930;9.532;2023-02-15T01:22:54;23.70;32.00
56268;DHT22;42175;46.930;9.532;2023-02-15T01:25:21;23.70;32.00
56268;DHT22;42175;46.930;9.532;2023-02-15T01:27:48;23.70;32.00
56268;DHT22;42175;46.930;9.532;2023-02-15T01:30:14;23.70;31.90
56268;DHT22;42175;46.930;9.532;2023-02-15T01:32:41;23.70;31.80
56268;DHT22;42175;46.930;9.532;2023-02-15T01:35:07;23.70;31.90
56268;DHT22;42175;46.930;9.532;2023-02-15T01:37:35;23.70;31.90
56268;DHT22;42175;46.930;9.532;2023-02-15T01:40:02;23.70;31.90
56268;DHT22;42175;46.930;9.532;2023-02-15T01:42:29;23.70;31.90
56268;DHT22;42175;46.930;9.532;2023-02-15T01:45:01;23.70;31.90
56268;DHT22;42175;46.930;9.532;2023-02-15T01:47:37;23.70;31.90
56268;DHT22;42175;46.930;9.532;2023-02-15T01:50:12;23.70;31.90
56268;DHT22;42175;46.930;9.532;2023-02-15T01:52:46;23.70;31.90
56268;DHT22;42175;46.930;9.532;2023-02-15T01:55:14;23.60;31.80
56268;DHT22;42175;46.930;9.532;2023-02-15T01:57:42;23.60;31.80
56268;DHT22;42175;46.930;9.532;2023-02-15T02:00:09;23.70;31.80
56268;DHT22;42175;46.930;9.532;2023-02-15T02:02:35;23.70;31.70
56268;DHT22;42175;46.930;9.532;2023-02-15T02:05:03;23.70;31.70
56268;DHT22;42175;46.930;9.532;2023-02-15T02:07:38;23.70;31.70
56268;DHT22;42175;46.930;9.532;2023-02-15T02:10:06;23.70;31.80
56268;DHT22;42175;46.930;9.532;2023-02-15T02:12:33;23.60;31.70
56268;DHT22;42175;46.930;9.532;2023-02-15T02:15:00;23.60;31.70
56268;DHT22;42175;46.930;9.532;2023-02-15T02:25:23;23.60;31.70
56268;DHT22;42175;46.930;9.532;2023-02-15T02:42:01;23.60;31.80
56268;DHT22;42175;46.930;9.532;2023-02-15T02:44:57;23.60;31.80
56268;DHT22;42175;46.930;9.532;2023-02-15T02:47:48;23.60;31.90
56268;DHT22;42175;46.930;9.532;2023-02-15T02:50:25;23.60;31.80
56268;DHT22;42175;46.930;9.532;2023-02-15T02:52:52;23.60;31.90
56268;DHT22;42175;46.930;9.532;2023-02-15T02:55:27;23.60;31.80
56268;DHT22;42175;46.930;9.532;2023-02-15T02:58:00;23.60;31.80
56268;DHT22;42175;46.930;9.532;2023-02-15T03:00:31;23.60;31.70
56268;DHT22;42175;46.930;9.532;2023-02-15T03:03:13;23.60;31.60
56268;DHT22;42175;46.930;9.532;2023-02-15T03:05:45;23.60;31.70
56268;DHT22;42175;46.930;9.532;2023-02-15T03:08:14;23.60;31.60
56268;DHT22;42175;46.930;9.532;2023-02-15T03:10:48;23.60;31.60
56268;DHT22;42175;46.930;9.532;2023-02-15T03:13:17;23.60;31.60
56268;DHT22;42175;46.930;9.532;2023-02-15T03:15:44;23.60;31.60
56268;DHT22;42175;46.930;9.532;2023-02-15T03:21:36;23.60;31.60
56268;DHT22;42175;46.930;9.532;2023-02-15T03:24:13;23.50;31.60
56268;DHT22;42175;46.930;9.532;2023-02-15T03:26:41;23.50;31.40
56268;DHT22;42175;46.930;9.532;2023-02-15T03:29:09;23.60;31.40
56268;DHT22;42175;46.930;9.532;2023-02-15T03:31:40;23.50;31.40
56268;DHT22;42175;46.930;9.532;2023-02-15T03:34:10;23.50;31.30
56268;DHT22;42175;46.930;9.532;2023-02-15T03:39:18;23.60;31.40
56268;DHT22;42175;46.930;9.532;2023-02-15T03:44:28;23.60;31.30
56268;DHT22;42175;46.930;9.532;2023-02-15T03:47:11;23.50;31.20
56268;DHT22;42175;46.930;9.532;2023-02-15T03:52:14;23.50;31.30
56268;DHT22;42175;46.930;9.532;2023-02-15T03:54:41;23.50;31.30
56268;DHT22;42175;46.930;9.532;2023-02-15T03:57:20;23.50;31.20
56268;DHT22;42175;46.930;9.532;2023-02-15T04:05:45;23.50;31.30
56268;DHT22;42175;46.930;9.532;2023-02-15T04:08:12;23.50;31.10
56268;DHT22;42175;46.930;9.532;2023-02-15T04:10:38;23.50;31.30
56268;DHT22;42175;46.930;9.532;2023-02-15T04:13:31;23.50;31.20
56268;DHT22;42175;46.930;9.532;2023-02-15T04:15:57;23.50;31.30
56268;DHT22;42175;46.930;9.532;2023-02-15T04:21:17;23.50;31.40
56268;DHT22;42175;46.930;9.532;2023-02-15T04:24:01;23.50;31.40
56268;DHT22;42175;46.930;9.532;2023-02-15T04:26:45;23.40;31.30
56268;DHT22;42175;46.930;9.532;2023-02-15T04:29:14;23.50;31.30
56268;DHT22;42175;46.930;9.532;2023-02-15T04:31:40;23.40;31.10
56268;DHT22;42175;46.930;9.532;2023-02-15T04:34:06;23.40;31.20
56268;DHT22;42175;46.930;9.532;2023-02-15T04:36:32;23.40;31.30
56268;DHT22;42175;46.930;9.532;2023-02-15T04:38:57;23.50;31.30
56268;DHT22;42175;46.930;9.532;2023-02-15T04:41:23;23.50;31.30
56268;DHT22;42175;46.930;9.532;2023-02-15T04:43:49;23.40;31.30
56268;DHT22;42175;46.930;9.532;2023-02-15T04:46:14;23.40;31.30
56268;DHT22;42175;46.930;9.532;2023-02-15T04:48:40;23.40;31.30
56268;DHT22;42175;46.930;9.532;2023-02-15T04:51:06;23.40;31.40
56268;DHT22;42175;46.930;9.532;2023-02-15T04:53:33;23.40;31.40
56268;DHT22;42175;46.930;9.532;2023-02-15T04:55:58;23.40;31.40
56268;DHT22;42175;46.930;9.532;2023-02-15T04:58:24;23.40;31.30
56268;DHT22;42175;46.930;9.532;2023-02-15T05:00:50;23.50;31.50
56268;DHT22;42175;46.930;9.532;2023-02-15T05:03:16;23.40;31.40
56268;DHT22;42175;46.930;9.532;2023-02-15T05:05:42;23.40;31.20
56268;DHT22;42175;46.930;9.532;2023-02-15T05:08:07;23.40;31.10
56268;DHT22;42175;46.930;9.532;2023-02-15T05:10:33;23.40;31.20
56268;DHT22;42175;46.930;9.532;2023-02-15T05:12:59;23.40;31.20
56268;DHT22;42175;46.930;9.532;2023-02-15T05:15:24;23.40;31.20
56268;DHT22;42175;46.930;9.532;2023-02-15T05:17:50;23.40;31.20
56268;DHT22;42175;46.930;9.532;2023-02-15T05:20:16;23.40;31.20
56268;DHT22;42175;46.930;9.532;2023-02-15T05:22:42;23.40;31.20
56268;DHT22;42175;46.930;9.532;2023-02-15T05:25:09;23.40;31.30
56268;DHT22;42175;46.930;9.532;2023-02-15T05:27:53;23.40;31.20
56268;DHT22;42175;46.930;9.532;2023-02-15T05:30:37;23.40;31.20
56268;DHT22;42175;46.930;9.532;2023-02-15T05:33:05;23.40;31.30
56268;DHT22;42175;46.930;9.532;2023-02-15T05:35:32;23.40;31.20
56268;DHT22;42175;46.930;9.532;2023-02-15T05:37:58;23.40;31.20
56268;DHT22;42175;46.930;9.532;2023-02-15T05:40:23;23.40;31.20
56268;DHT22;42175;46.930;9.532;2023-02-15T05:42:49;23.30;31.10
56268;DHT22;42175;46.930;9.532;2023-02-15T05:45:15;23.40;31.20
56268;DHT22;42175;46.930;9.532;2023-02-15T05:47:41;23.40;31.20
56268;DHT22;42175;46.930;9.532;2023-02-15T05:50:08;23.40;31.30
56268;DHT22;42175;46.930;9.532;2023-02-15T05:52:34;23.40;31.30
56268;DHT22;42175;46.930;9.532;2023-02-15T05:55:00;23.30;31.30
56268;DHT22;42175;46.930;9.532;2023-02-15T05:57:27;23.30;31.30
56268;DHT22;42175;46.930;9.532;2023-02-15T05:59:53;23.40;31.30
56268;DHT22;42175;46.930;9.532;2023-02-15T06:02:19;23.40;31.30
56268;DHT22;42175;46.930;9.532;2023-02-15T06:04:44;23.30;31.20
56268;DHT22;42175;46.930;9.532;2023-02-15T06:07:10;23.40;31.20
56268;DHT22;42175;46.930;9.532;2023-02-15T06:09:36;23.40;31.10
56268;DHT22;42175;46.930;9.532;2023-02-15T06:12:01;23.30;31.10
56268;DHT22;42175;46.930;9.532;2023-02-15T06:14:27;23.40;31.10
56268;DHT22;42175;46.930;9.532;2023-02-15T06:16:53;23.30;31.20
56268;DHT22;42175;46.930;9.532;2023-02-15T06:19:18;23.40;31.20
56268;DHT22;42175;46.930;9.532;2023-02-15T06:21:44;23.40;31.30
56268;DHT22;42175;46.930;9.532;2023-02-15T06:24:10;23.40;31.20
56268;DHT22;42175;46.930;9.532;2023-02-15T06:26:36;23.40;31.30
56268;DHT22;42175;46.930;9.532;2023-02-15T06:29:02;23.40;32.40
56268;DHT22;42175;46.930;9.532;2023-02-15T06:31:27;23.40;31.50
56268;DHT22;42175;46.930;9.532;2023-02-15T06:33:54;23.30;31.50
56268;DHT22;42175;46.930;9.532;2023-02-15T06:36:27;23.30;31.50
56268;DHT22;42175;46.930;9.532;2023-02-15T06:38:53;23.40;31.60
56268;DHT22;42175;46.930;9.532;2023-02-15T06:41:19;23.40;31.50
56268;DHT22;42175;46.930;9.532;2023-02-15T06:43:45;23.40;31.60
56268;DHT22;42175;46.930;9.532;2023-02-15T06:46:10;23.40;31.90
56268;DHT22;42175;46.930;9.532;2023-02-15T06:48:36;23.40;31.80
56268;DHT22;42175;46.930;9.532;2023-02-15T06:51:02;23.40;31.80
56268;DHT22;42175;46.930;9.532;2023-02-15T06:53:28;23.40;31.60
56268;DHT22;42175;46.930;9.532;2023-02-15T06:56:03;23.40;31.70
56268;DHT22;42175;46.930;9.532;2023-02-15T06:58:32;23.40;31.70
56268;DHT22;42175;46.930;9.532;2023-02-15T07:00:58;23.40;31.60
56268;DHT22;42175;46.930;9.532;2023-02-15T07:03:24;23.40;31.70
56268;DHT22;42175;46.930;9.532;2023-02-15T07:05:54;23.40;31.50
56268;DHT22;42175;46.930;9.532;2023-02-15T07:08:21;23.40;31.50
56268;DHT22;42175;46.930;9.532;2023-02-15T07:10:46;23.50;31.70
56268;DHT22;42175;46.930;9.532;2023-02-15T07:13:13;23.50;31.60
56268;DHT22;42175;46.930;9.532;2023-02-15T07:15:39;23.40;31.70
56268;DHT22;42175;46.930;9.532;2023-02-15T07:18:05;23.50;31.80
56268;DHT22;42175;46.930;9.532;2023-02-15T07:20:30;23.50;32.00
56268;DHT22;42175;46.930;9.532;2023-02-15T07:22:58;23.50;32.80
56268;DHT22;42175;46.930;9.532;2023-02-15T07:25:24;23.50;32.50
56268;DHT22;42175;46.930;9.532;2023-02-15T07:27:59;23.60;33.30
56268;DHT22;42175;46.930;9.532;2023-02-15T07:30:25;23.60;33.80
56268;DHT22;42175;46.930;9.532;2023-02-15T07:32:50;23.60;33.60
56268;DHT22;42175;46.930;9.532;2023-02-15T07:35:38;23.60;33.50
56268;DHT22;42175;46.930;9.532;2023-02-15T07:38:11;23.60;33.20
56268;DHT22;42175;46.930;9.532;2023-02-15T07:40:36;23.50;33.30
56268;DHT22;42175;46.930;9.532;2023-02-15T07:43:02;23.60;33.90
56268;DHT22;42175;46.930;9.532;2023-02-15T07:45:28;23.60;33.50
56268;DHT22;42175;46.930;9.532;2023-02-15T07:47:53;23.60;33.30
56268;DHT22;42175;46.930;9.532;2023-02-15T07:50:19;23.60;33.50
56268;DHT22;42175;46.930;9.532;2023-02-15T07:52:45;23.60;33.40
56268;DHT22;42175;46.930;9.532;2023-02-15T07:55:10;23.70;33.40
56268;DHT22;42175;46.930;9.532;2023-02-15T07:57:42;23.70;33.40
56268;DHT22;42175;46.930;9.532;2023-02-15T08:00:09;23.70;33.50
56268;DHT22;42175;46.930;9.532;2023-02-15T08:02:34;23.70;33.50
56268;DHT22;42175;46.930;9.532;2023-02-15T08:05:02;23.80;33.60
56268;DHT22;42175;46.930;9.532;2023-02-15T08:07:28;23.80;33.90
56268;DHT22;42175;46.930;9.532;2023-02-15T08:09:54;23.80;34.10
56268;DHT22;42175;46.930;9.532;2023-02-15T08:12:19;23.90;34.30
56268;DHT22;42175;46.930;9.532;2023-02-15T08:14:45;23.80;34.00
56268;DHT22;42175;46.930;9.532;2023-02-15T08:17:11;23.80;34.00
56268;DHT22;42175;46.930;9.532;2023-02-15T08:19:37;23.80;33.90
56268;DHT22;42175;46.930;9.532;2023-02-15T08:22:05;23.80;33.90
56268;DHT22;42175;46.930;9.532;2023-02-15T08:24:36;23.80;33.90
56268;DHT22;42175;46.930;9.532;2023-02-15T08:27:03;23.80;34.00
56268;DHT22;42175;46.930;9.532;2023-02-15T08:29:30;23.80;34.00
56268;DHT22;42175;46.930;9.532;2023-02-15T08:31:59;23.80;34.20
56268;DHT22;42175;46.930;9.532;2023-02-15T08:34:28;23.80;34.20
56268;DHT22;42175;46.930;9.532;2023-02-15T08:36:54;23.80;34.30
56268;DHT22;42175;46.930;9.532;2023-02-15T08:39:20;23.80;34.20
56268;DHT22;42175;46.930;9.532;2023-02-15T08:41:48;23.80;34.30
56268;DHT22;42175;46.930;9.532;2023-02-15T08:44:16;23.70;34.30
56268;DHT22;42175;46.930;9.532;2023-02-15T08:46:44;23.70;34.40
56268;DHT22;42175;46.930;9.532;2023-02-15T08:49:13;23.80;34.50
56268;DHT22;42175;46.930;9.532;2023-02-15T08:51:39;23.40;27.20
56268;DHT22;42175;46.930;9.532;2023-02-15T08:54:09;22.90;28.80
56268;DHT22;42175;46.930;9.532;2023-02-15T08:56:37;23.10;30.20
56268;DHT22;42175;46.930;9.532;2023-02-15T08:59:05;23.30;31.40
56268;DHT22;42175;46.930;9.532;2023-02-15T09:01:32;23.40;31.80
56268;DHT22;42175;46.930;9.532;2023-02-15T09:04:03;23.50;32.20
56268;DHT22;42175;46.930;9.532;2023-02-15T09:06:34;23.50;32.30
56268;DHT22;42175;46.930;9.532;2023-02-15T09:09:00;23.60;32.20
56268;DHT22;42175;46.930;9.532;2023-02-15T09:11:29;23.70;32.30
56268;DHT22;42175;46.930;9.532;2023-02-15T09:14:08;23.70;32.30
56268;DHT22;42175;46.930;9.532;2023-02-15T09:16:36;23.70;32.20
56268;DHT22;42175;46.930;9.532;2023-02-15T09:19:03;23.70;32.40
56268;DHT22;42175;46.930;9.532;2023-02-15T09:21:35;23.80;32.40
56268;DHT22;42175;46.930;9.532;2023-02-15T09:24:04;23.80;32.40
56268;DHT22;42175;46.930;9.532;2023-02-15T09:26:32;23.80;32.50
56268;DHT22;42175;46.930;9.532;2023-02-15T09:29:00;23.80;32.50
56268;DHT22;42175;46.930;9.532;2023-02-15T09:31:32;23.80;32.50
56268;DHT22;42175;46.930;9.532;2023-02-15T09:34:00;23.80;32.50
56268;DHT22;42175;46.930;9.532;2023-02-15T09:36:33;23.80;32.60
56268;DHT22;42175;46.930;9.532;2023-02-15T09:39:14;23.80;32.70
56268;DHT22;42175;46.930;9.532;2023-02-15T09:44:38;23.80;32.60
56268;DHT22;42175;46.930;9.532;2023-02-15T09:49:50;23.80;32.70
56268;DHT22;42175;46.930;9.532;2023-02-15T09:52:33;23.70;33.00
56268;DHT22;42175;46.930;9.532;2023-02-15T10:00:50;23.70;33.70
56268;DHT22;42175;46.930;9.532;2023-02-15T10:03:26;23.70;34.20
56268;DHT22;42175;46.930;9.532;2023-02-15T10:11:39;23.70;35.00
56268;DHT22;42175;46.930;9.532;2023-02-15T10:27:13;23.80;36.20
56268;DHT22;42175;46.930;9.532;2023-02-15T10:30:10;23.80;36.10
56268;DHT22;42175;46.930;9.532;2023-02-15T10:38:41;23.80;36.60
56268;DHT22;42175;46.930;9.532;2023-02-15T10:57:43;23.90;37.00
56268;DHT22;42175;46.930;9.532;2023-02-15T11:00:26;23.90;37.00
56268;DHT22;42175;46.930;9.532;2023-02-15T11:06:04;24.00;36.90
56268;DHT22;42175;46.930;9.532;2023-02-15T11:08:35;24.00;36.80
56268;DHT22;42175;46.930;9.532;2023-02-15T11:11:12;23.90;37.00
56268;DHT22;42175;46.930;9.532;2023-02-15T11:13:44;24.00;37.10
56268;DHT22;42175;46.930;9.532;2023-02-15T11:16:22;24.00;37.00
56268;DHT22;42175;46.930;9.532;2023-02-15T11:18:53;24.00;37.00
56268;DHT22;42175;46.930;9.532;2023-02-15T11:21:31;24.00;36.20
56268;DHT22;42175;46.930;9.532;2023-02-15T11:24:14;24.00;37.00
56268;DHT22;42175;46.930;9.532;2023-02-15T11:27:03;24.10;37.00
56268;DHT22;42175;46.930;9.532;2023-02-15T11:32:34;24.10;37.60
56268;DHT22;42175;46.930;9.532;2023-02-15T11:38:01;24.20;37.00
56268;DHT22;42175;46.930;9.532;2023-02-15T11:40:36;24.20;37.00
56268;DHT22;42175;46.930;9.532;2023-02-15T11:43:26;24.20;37.00
56268;DHT22;42175;46.930;9.532;2023-02-15T11:45:54;24.20;37.10
56268;DHT22;42175;46.930;9.532;2023-02-15T11:48:20;24.20;37.20
56268;DHT22;42175;46.930;9.532;2023-02-15T11:50:46;24.20;37.10
56268;DHT22;42175;46.930;9.532;2023-02-15T11:53:15;24.20;37.00
56268;DHT22;42175;46.930;9.532;2023-02-15T11:55:45;24.20;37.00
56268;DHT22;42175;46.930;9.532;2023-02-15T12:00:47;24.20;36.90
56268;DHT22;42175;46.930;9.532;2023-02-15T12:06:32;24.20;36.70
56268;DHT22;42175;46.930;9.532;2023-02-15T12:09:15;24.30;36.70
56268;DHT22;42175;46.930;9.532;2023-02-15T12:11:44;24.20;36.60
56268;DHT22;42175;46.930;9.532;2023-02-15T12:14:13;24.20;36.50
56268;DHT22;42175;46.930;9.532;2023-02-15T12:16:46;24.30;36.60
56268;DHT22;42175;46.930;9.532;2023-02-15T12:19:33;24.30;36.50
56268;DHT22;42175;46.930;9.532;2023-02-15T12:22:04;24.30;36.50
56268;DHT22;42175;46.930;9.532;2023-02-15T12:24:32;24.30;36.40
56268;DHT22;42175;46.930;9.532;2023-02-15T12:27:02;24.30;36.30
56268;DHT22;42175;46.930;9.532;2023-02-15T12:29:44;24.30;36.30
56268;DHT22;42175;46.930;9.532;2023-02-15T12:32:22;24.30;36.70
56268;DHT22;42175;46.930;9.532;2023-02-15T12:34:49;24.20;36.60
56268;DHT22;42175;46.930;9.532;2023-02-15T12:37:23;24.20;36.60
56268;DHT22;42175;46.930;9.532;2023-02-15T12:40:00;24.10;36.50
56268;DHT22;42175;46.930;9.532;2023-02-15T12:42:28;24.20;37.20
56268;DHT22;42175;46.930;9.532;2023-02-15T12:45:32;24.20;36.40
56268;DHT22;42175;46.930;9.532;2023-02-15T12:48:17;24.30;36.30
56268;DHT22;42175;46.930;9.532;2023-02-15T12:50:50;24.30;36.20
56268;DHT22;42175;46.930;9.532;2023-02-15T12:53:19;24.20;36.20
56268;DHT22;42175;46.930;9.532;2023-02-15T12:55:52;24.20;36.10
56268;DHT22;42175;46.930;9.532;2023-02-15T12:58:21;24.20;36.10
56268;DHT22;42175;46.930;9.532;2023-02-15T13:01:09;24.20;35.90
56268;DHT22;42175;46.930;9.532;2023-02-15T13:03:58;24.20;36.00
56268;DHT22;42175;46.930;9.532;2023-02-15T13:06:26;24.20;35.90
56268;DHT22;42175;46.930;9.532;2023-02-15T13:08:58;24.20;35.90
56268;DHT22;42175;46.930;9.532;2023-02-15T13:11:31;24.20;35.90
56268;DHT22;42175;46.930;9.532;2023-02-15T13:14:20;24.20;35.60
56268;DHT22;42175;46.930;9.532;2023-02-15T13:16:50;24.20;35.40
56268;DHT22;42175;46.930;9.532;2023-02-15T13:19:23;24.10;35.20
56268;DHT22;42175;46.930;9.532;2023-02-15T13:21:53;24.10;35.10
56268;DHT22;42175;46.930;9.532;2023-02-15T13:26:48;24.10;35.20
56268;DHT22;42175;46.930;9.532;2023-02-15T13:31:52;24.10;34.80
56268;DHT22;42175;46.930;9.532;2023-02-15T13:39:51;24.10;34.60
56268;DHT22;42175;46.930;9.532;2023-02-15T13:48:07;24.10;34.40
56268;DHT22;42175;46.930;9.532;2023-02-15T14:31:37;24.00;34.30
56268;DHT22;42175;46.930;9.532;2023-02-15T14:34:04;24.00;34.30
56268;DHT22;42175;46.930;9.532;2023-02-15T14:36:30;24.10;34.30
56268;DHT22;42175;46.930;9.532;2023-02-15T14:42:25;23.60;28.80
56268;DHT22;42175;46.930;9.532;2023-02-15T14:45:19;23.40;29.70
56268;DHT22;42175;46.930;9.532;2023-02-15T14:50:42;23.70;33.30
56268;DHT22;42175;46.930;9.532;2023-02-15T14:55:42;23.80;33.50
56268;DHT22;42175;46.930;9.532;2023-02-15T14:58:12;23.90;33.60
56268;DHT22;42175;46.930;9.532;2023-02-15T15:00:40;23.90;33.60
56268;DHT22;42175;46.930;9.532;2023-02-15T15:03:19;23.90;33.60
56268;DHT22;42175;46.930;9.532;2023-02-15T15:05:50;23.90;33.70
56268;DHT22;42175;46.930;9.532;2023-02-15T15:08:34;23.90;33.70
56268;DHT22;42175;46.930;9.532;2023-02-15T15:14:00;23.90;33.80
56268;DHT22;42175;46.930;9.532;2023-02-15T15:19:14;23.90;33.80
56268;DHT22;42175;46.930;9.532;2023-02-15T15:49:21;23.90;33.90
56268;DHT22;42175;46.930;9.532;2023-02-15T15:51:49;24.00;34.00
56268;DHT22;42175;46.930;9.532;2023-02-15T15:54:24;23.90;33.90
56268;DHT22;42175;46.930;9.532;2023-02-15T15:56:55;24.00;34.00
56268;DHT22;42175;46.930;9.532;2023-02-15T15:59:29;24.00;34.10
56268;DHT22;42175;46.930;9.532;2023-02-15T16:02:06;24.00;34.00
56268;DHT22;42175;46.930;9.532;2023-02-15T16:04:33;24.00;34.00
56268;DHT22;42175;46.930;9.532;2023-02-15T16:12:22;24.00;34.00
56268;DHT22;42175;46.930;9.532;2023-02-15T16:14:49;23.90;34.00
56268;DHT22;42175;46.930;9.532;2023-02-15T16:17:28;24.00;34.00
56268;DHT22;42175;46.930;9.532;2023-02-15T16:20:11;23.90;33.90
56268;DHT22;42175;46.930;9.532;2023-02-15T16:22:39;24.00;33.90
56268;DHT22;42175;46.930;9.532;2023-02-15T16:27:34;23.90;33.80
56268;DHT22;42175;46.930;9.532;2023-02-15T16:32:53;24.00;33.90
56268;DHT22;42175;46.930;9.532;2023-02-15T16:35:21;24.00;33.90
56268;DHT22;42175;46.930;9.532;2023-02-15T16:37:47;24.00;33.90
56268;DHT22;42175;46.930;9.532;2023-02-15T16:40:35;24.00;33.90
56268;DHT22;42175;46.930;9.532;2023-02-15T16:43:06;24.00;33.90
56268;DHT22;42175;46.930;9.532;2023-02-15T16:45:33;24.00;33.90
56268;DHT22;42175;46.930;9.532;2023-02-15T16:48:07;24.00;33.80
56268;DHT22;42175;46.930;9.532;2023-02-15T16:50:37;24.00;33.90
56268;DHT22;42175;46.930;9.532;2023-02-15T16:53:05;24.00;33.80
56268;DHT22;42175;46.930;9.532;2023-02-15T16:55:39;24.00;33.80
56268;DHT22;42175;46.930;9.532;2023-02-15T16:58:12;24.00;33.60
56268;DHT22;42175;46.930;9.532;2023-02-15T17:00:39;23.90;33.60
56268;DHT22;42175;46.930;9.532;2023-02-15T17:03:25;24.00;33.70
56268;DHT22;42175;46.930;9.532;2023-02-15T17:05:54;24.00;33.80
56268;DHT22;42175;46.930;9.532;2023-02-15T17:08:49;24.00;33.80
56268;DHT22;42175;46.930;9.532;2023-02-15T17:11:19;24.00;33.70
56268;DHT22;42175;46.930;9.532;2023-02-15T17:16:35;24.00;33.70
56268;DHT22;42175;46.930;9.532;2023-02-15T17:19:31;24.00;33.60
56268;DHT22;42175;46.930;9.532;2023-02-15T17:22:05;24.00;33.70
56268;DHT22;42175;46.930;9.532;2023-02-15T17:24:39;24.00;33.70
56268;DHT22;42175;46.930;9.532;2023-02-15T17:27:31;24.00;33.80
56268;DHT22;42175;46.930;9.532;2023-02-15T17:30:04;24.00;33.70
56268;DHT22;42175;46.930;9.532;2023-02-15T17:32:37;24.00;33.70
56268;DHT22;42175;46.930;9.532;2023-02-15T17:35:22;24.00;33.70
56268;DHT22;42175;46.930;9.532;2023-02-15T17:37:54;24.00;33.70
56268;DHT22;42175;46.930;9.532;2023-02-15T17:40:33;24.00;33.70
56268;DHT22;42175;46.930;9.532;2023-02-15T17:43:00;24.00;33.70
56268;DHT22;42175;46.930;9.532;2023-02-15T17:45:33;24.00;33.80
56268;DHT22;42175;46.930;9.532;2023-02-15T17:48:04;24.00;34.00
56268;DHT22;42175;46.930;9.532;2023-02-15T17:50:31;24.10;34.50
56268;DHT22;42175;46.930;9.532;2023-02-15T17:52:58;24.10;34.80
56268;DHT22;42175;46.930;9.532;2023-02-15T17:55:26;24.10;34.80
56268;DHT22;42175;46.930;9.532;2023-02-15T17:58:17;24.10;34.80
56268;DHT22;42175;46.930;9.532;2023-02-15T18:00:49;24.10;35.30
56268;DHT22;42175;46.930;9.532;2023-02-15T18:03:43;24.10;35.20
56268;DHT22;42175;46.930;9.532;2023-02-15T18:06:28;24.20;34.80
56268;DHT22;42175;46.930;9.532;2023-02-15T18:09:15;24.20;34.80
56268;DHT22;42175;46.930;9.532;2023-02-15T18:11:59;24.30;35.00
56268;DHT22;42175;46.930;9.532;2023-02-15T18:14:25;24.30;35.10
56268;DHT22;42175;46.930;9.532;2023-02-15T18:16:51;24.30;35.20
56268;DHT22;42175;46.930;9.532;2023-02-15T18:19:23;24.30;35.30
56268;DHT22;42175;46.930;9.532;2023-02-15T18:21:50;24.30;35.30
56268;DHT22;42175;46.930;9.532;2023-02-15T18:24:24;24.30;35.50
56268;DHT22;42175;46.930;9.532;2023-02-15T18:26:51;24.30;35.40
56268;DHT22;42175;46.930;9.532;2023-02-15T18:29:18;24.30;35.60
56268;DHT22;42175;46.930;9.532;2023-02-15T18:31:45;24.40;35.70
56268;DHT22;42175;46.930;9.532;2023-02-15T18:34:30;24.40;35.70
56268;DHT22;42175;46.930;9.532;2023-02-15T18:36:57;24.40;35.70
56268;DHT22;42175;46.930;9.532;2023-02-15T18:39:31;24.40;35.70
56268;DHT22;42175;46.930;9.532;2023-02-15T18:41:58;24.50;35.90
56268;DHT22;42175;46.930;9.532;2023-02-15T18:44:25;24.40;35.80
56268;DHT22;42175;46.930;9.532;2023-02-15T18:46:51;24.50;36.20
56268;DHT22;42175;46.930;9.532;2023-02-15T18:49:17;24.40;36.30
56268;DHT22;42175;46.930;9.532;2023-02-15T18:51:43;24.50;36.20
56268;DHT22;42175;46.930;9.532;2023-02-15T18:54:18;24.50;36.10
56268;DHT22;42175;46.930;9.532;2023-02-15T18:56:55;24.50;36.20
56268;DHT22;42175;46.930;9.532;2023-02-15T18:59:23;24.50;36.20
56268;DHT22;42175;46.930;9.532;2023-02-15T19:01:50;24.50;36.30
56268;DHT22;42175;46.930;9.532;2023-02-15T19:04:16;24.50;36.50
56268;DHT22;42175;46.930;9.532;2023-02-15T19:06:51;24.50;36.50
56268;DHT22;42175;46.930;9.532;2023-02-15T19:09:21;24.50;36.70
56268;DHT22;42175;46.930;9.532;2023-02-15T19:11:50;24.50;36.50
56268;DHT22;42175;46.930;9.532;2023-02-15T19:14:23;24.50;36.50
56268;DHT22;42175;46.930;9.532;2023-02-15T19:16:49;24.50;36.50
56268;DHT22;42175;46.930;9.532;2023-02-15T19:19:15;24.50;36.40
56268;DHT22;42175;46.930;9.532;2023-02-15T19:21:41;24.50;36.30
56268;DHT22;42175;46.930;9.532;2023-02-15T19:24:15;24.50;36.30
56268;DHT22;42175;46.930;9.532;2023-02-15T19:26:42;24.50;36.20
56268;DHT22;42175;46.930;9.532;2023-02-15T19:29:10;24.50;36.20
56268;DHT22;42175;46.930;9.532;2023-02-15T19:31:37;24.50;36.20
56268;DHT22;42175;46.930;9.532;2023-02-15T19:34:14;24.50;36.20